Terminal Aerodrome Forecast
Issued by NWS

Home | Current Version | Previous Version | Text Only | Print | Product List | Glossary On
Versions: 1 2 3 4 5 6 7 8 9 10 11 12 13 14 15 16
000
FTUS44 KMAF 180500
TAFCNM
TAF
KCNM 180522Z 1806/1906 08009KT P6SM SKC
     FM181000 13006KT P6SM OVC010
     FM181900 14012G20KT P6SM SCT040 PROB30 1900/1903 P6SM -TSRA
      SCT040CB BKN250
     FM190300 15009KT P6SM SCT100 BKN250=

USA.gov is the U.S. government's official web portal to all federal, state and local government web resources and services.